createdAt,value
2023-11-09T00:00:32.798Z,5.03
2023-11-09T00:03:05.950Z,5.13
2023-11-09T00:05:37.571Z,4.62
2023-11-09T00:08:09.146Z,4.59
2023-11-09T00:10:40.666Z,4.67
2023-11-09T00:13:12.288Z,4.45
2023-11-09T00:15:43.813Z,4.32
2023-11-09T00:18:15.368Z,4.46
2023-11-09T00:20:46.907Z,4.54
2023-11-09T00:23:19.203Z,4.98
2023-11-09T00:25:50.954Z,4.56
2023-11-09T00:28:22.530Z,4.40
2023-11-09T00:30:54.105Z,4.73
2023-11-09T00:33:26.100Z,4.80
2023-11-09T00:35:57.664Z,4.68
2023-11-09T00:38:29.191Z,4.63
2023-11-09T00:41:00.767Z,4.24
2023-11-09T00:43:32.322Z,4.44
2023-11-09T00:46:04.068Z,4.39
2023-11-09T00:48:35.710Z,4.50
2023-11-09T00:51:07.226Z,4.32
2023-11-09T00:53:38.773Z,4.24
2023-11-09T00:56:10.362Z,4.29
2023-11-09T00:58:41.992Z,4.14
2023-11-09T01:01:13.795Z,4.34
2023-11-09T01:03:45.371Z,4.47
2023-11-09T01:06:16.928Z,4.05
2023-11-09T01:08:48.461Z,4.15
2023-11-09T01:11:24.703Z,3.93
2023-11-09T01:13:56.277Z,4.26
2023-11-09T01:16:28.179Z,3.94
2023-11-09T01:18:59.812Z,4.18
2023-11-09T01:21:31.337Z,4.06
2023-11-09T01:24:02.862Z,4.28
2023-11-09T01:26:34.347Z,4.27
2023-11-09T01:29:05.851Z,4.30
2023-11-09T01:31:37.339Z,3.98
2023-11-09T01:34:13.014Z,4.22
2023-11-09T01:36:46.864Z,4.09
2023-11-09T01:39:18.413Z,3.92
2023-11-09T01:41:50.701Z,3.87
2023-11-09T01:44:22.240Z,4.30
2023-11-09T01:46:54.084Z,3.96
2023-11-09T01:49:25.993Z,4.32
2023-11-09T01:51:57.824Z,4.05
2023-11-09T01:54:35.554Z,4.12
2023-11-09T01:57:09.221Z,3.82
2023-11-09T01:59:46.019Z,3.86
2023-11-09T02:02:18.591Z,3.83
2023-11-09T02:04:50.777Z,3.73
2023-11-09T02:07:22.496Z,3.87
2023-11-09T02:09:54.086Z,3.68
2023-11-09T02:12:25.668Z,3.70
2023-11-09T02:14:58.169Z,3.57
2023-11-09T02:17:30.514Z,3.50
2023-11-09T02:20:02.956Z,3.23
2023-11-09T02:22:38.176Z,3.84
2023-11-09T02:25:10.629Z,3.54
2023-11-09T02:27:42.490Z,3.69
2023-11-09T02:30:14.325Z,3.49
2023-11-09T02:32:46.998Z,3.80
2023-11-09T02:35:18.969Z,3.63
2023-11-09T02:37:50.481Z,3.50
2023-11-09T02:40:22.046Z,3.42
2023-11-09T02:42:53.630Z,3.70
2023-11-09T02:45:25.214Z,3.69
2023-11-09T02:47:56.822Z,3.58
2023-11-09T02:50:28.397Z,3.27
2023-11-09T02:52:59.981Z,3.34
2023-11-09T02:55:31.510Z,3.30
2023-11-09T02:58:03.062Z,3.56
2023-11-09T03:00:34.555Z,3.60
2023-11-09T03:03:06.029Z,3.45
2023-11-09T03:05:37.562Z,3.59
2023-11-09T03:08:09.152Z,3.65
2023-11-09T03:10:41.340Z,3.60
2023-11-09T03:13:12.923Z,3.28
2023-11-09T03:15:44.508Z,3.37
2023-11-09T03:18:16.206Z,3.54
2023-11-09T03:20:47.966Z,3.55
2023-11-09T03:23:19.483Z,3.17
2023-11-09T03:25:50.944Z,3.39
2023-11-09T03:28:22.484Z,3.29
2023-11-09T03:30:54.109Z,3.13
2023-11-09T03:33:25.640Z,3.17
2023-11-09T03:35:57.906Z,3.05
2023-11-09T03:38:29.447Z,3.07
2023-11-09T03:41:01.129Z,3.45
2023-11-09T03:43:32.666Z,2.99
2023-11-09T03:46:04.404Z,2.91
2023-11-09T03:48:35.987Z,3.23
2023-11-09T03:51:08.958Z,3.21
2023-11-09T03:56:55.768Z,3.39
2023-11-09T03:59:27.736Z,3.19
2023-11-09T04:01:59.321Z,3.32
2023-11-09T04:04:30.918Z,3.06
2023-11-09T04:07:02.543Z,3.21
2023-11-09T04:09:34.146Z,3.17
2023-11-09T04:12:06.084Z,2.99
2023-11-09T04:14:37.576Z,3.43
2023-11-09T04:17:09.080Z,3.19
2023-11-09T04:19:41.804Z,3.08
2023-11-09T04:22:13.472Z,3.02
2023-11-09T04:24:44.964Z,3.02
2023-11-09T04:27:16.460Z,3.05
2023-11-09T04:29:48.665Z,2.96
2023-11-09T04:32:27.597Z,3.10
2023-11-09T04:34:59.174Z,2.84
2023-11-09T04:37:32.329Z,2.96
2023-11-09T04:40:04.191Z,3.23
2023-11-09T04:42:35.730Z,2.85
2023-11-09T04:45:07.653Z,2.79
2023-11-09T04:47:39.740Z,3.02
2023-11-09T04:50:11.605Z,2.85
2023-11-09T04:52:43.555Z,2.84
2023-11-09T04:55:15.388Z,2.67
2023-11-09T04:57:47.220Z,2.62
2023-11-09T05:00:18.832Z,2.52
2023-11-09T05:02:50.390Z,2.81
2023-11-09T05:05:22.030Z,3.16
2023-11-09T05:07:53.568Z,2.90
2023-11-09T05:10:25.128Z,2.88
2023-11-09T05:12:56.696Z,3.05
2023-11-09T05:15:28.205Z,2.82
2023-11-09T05:17:59.753Z,2.74
2023-11-09T05:20:31.313Z,2.79
2023-11-09T05:23:02.814Z,2.86
2023-11-09T05:25:34.363Z,2.60
2023-11-09T05:28:07.227Z,3.01
2023-11-09T05:30:38.864Z,2.74
2023-11-09T05:33:10.455Z,2.94
2023-11-09T05:35:42.066Z,2.87
2023-11-09T05:38:13.782Z,2.86
2023-11-09T05:40:45.468Z,2.56
2023-11-09T05:43:17.110Z,2.75
2023-11-09T05:45:48.656Z,2.81
2023-11-09T05:48:20.362Z,2.95
2023-11-09T05:50:52.770Z,3.01
2023-11-09T05:53:24.289Z,2.51
2023-11-09T05:55:56.497Z,2.53
2023-11-09T05:58:28.121Z,2.48
2023-11-09T06:00:59.674Z,2.60
2023-11-09T06:03:31.325Z,2.63
2023-11-09T06:06:03.057Z,2.45
2023-11-09T06:08:34.804Z,2.51
2023-11-09T06:11:06.395Z,2.36
2023-11-09T06:13:38.084Z,2.19
2023-11-09T06:16:10.160Z,2.14
2023-11-09T06:18:41.807Z,2.11
2023-11-09T06:21:13.469Z,1.85
2023-11-09T06:23:54.523Z,1.64
2023-11-09T06:26:26.459Z,1.65
2023-11-09T06:28:57.971Z,1.60
2023-11-09T06:31:29.595Z,1.45
2023-11-09T06:34:01.295Z,1.35
2023-11-09T06:36:32.982Z,1.32
2023-11-09T06:39:04.506Z,1.30
2023-11-09T06:41:36.114Z,1.24
2023-11-09T06:44:07.745Z,1.07
2023-11-09T06:46:39.592Z,0.93
2023-11-09T06:49:11.840Z,0.96
2023-11-09T06:51:43.405Z,0.87
2023-11-09T06:54:14.904Z,0.97
2023-11-09T06:56:46.425Z,0.97
2023-11-09T06:59:17.923Z,0.99
2023-11-09T07:01:49.442Z,0.87
2023-11-09T07:04:21.022Z,0.99
2023-11-09T07:06:52.639Z,0.91
2023-11-09T07:09:24.209Z,0.84
2023-11-09T07:11:55.813Z,0.93
2023-11-09T07:14:27.331Z,1.06
2023-11-09T07:16:58.887Z,1.10
2023-11-09T07:19:30.445Z,0.80
2023-11-09T07:22:02.108Z,0.73
2023-11-09T07:24:33.716Z,0.78
2023-11-09T07:27:05.614Z,0.84
2023-11-09T07:29:37.895Z,0.74
2023-11-09T07:32:09.531Z,0.84
2023-11-09T07:34:41.392Z,0.79
2023-11-09T07:37:13.056Z,0.81
2023-11-09T07:39:44.643Z,0.70
2023-11-09T07:42:16.160Z,0.88
2023-11-09T07:44:47.729Z,0.86
2023-11-09T07:47:19.436Z,0.86
2023-11-09T07:49:51.023Z,1.71
2023-11-09T07:52:22.712Z,1.12
2023-11-09T07:54:54.257Z,1.12
2023-11-09T07:57:25.745Z,1.19
2023-11-09T08:00:04.883Z,1.09
2023-11-09T08:02:37.339Z,0.91
2023-11-09T08:05:09.207Z,0.83
2023-11-09T08:07:41.843Z,0.88
2023-11-09T08:10:13.678Z,0.93
2023-11-09T08:12:45.344Z,1.00
2023-11-09T08:15:17.112Z,1.18
2023-11-09T08:17:48.844Z,1.00
2023-11-09T08:20:20.750Z,0.93
2023-11-09T08:22:52.332Z,0.96
2023-11-09T08:25:24.141Z,0.96
2023-11-09T08:27:55.719Z,0.94
2023-11-09T08:30:27.246Z,1.08
2023-11-09T08:32:58.868Z,1.02
2023-11-09T08:35:30.462Z,0.95
2023-11-09T08:38:02.029Z,1.09
2023-11-09T08:40:33.663Z,0.96
2023-11-09T08:43:05.230Z,0.93
2023-11-09T08:45:36.968Z,0.99
2023-11-09T08:48:08.698Z,1.02
2023-11-09T08:50:40.399Z,1.00
2023-11-09T08:53:12.501Z,0.94
2023-11-09T08:55:44.133Z,0.96
2023-11-09T08:58:15.719Z,1.09
2023-11-09T09:00:47.259Z,1.18
2023-11-09T09:03:18.801Z,1.23
2023-11-09T09:05:50.922Z,1.12
2023-11-09T09:08:23.262Z,1.17
2023-11-09T09:10:57.745Z,1.21
2023-11-09T09:13:29.383Z,1.12
2023-11-09T09:16:01.140Z,1.25
2023-11-09T09:18:32.765Z,1.26
2023-11-09T09:21:04.456Z,0.96
2023-11-09T09:23:36.580Z,1.01
2023-11-09T09:26:15.077Z,1.03
2023-11-09T09:28:47.982Z,0.91
2023-11-09T09:31:19.977Z,0.94
2023-11-09T09:34:05.528Z,1.02
2023-11-09T09:36:39.853Z,0.93
2023-11-09T09:39:11.424Z,1.10
2023-11-09T09:41:43.861Z,1.01
2023-11-09T09:44:17.660Z,1.05
2023-11-09T09:46:51.215Z,0.98
2023-11-09T09:49:22.877Z,0.96
2023-11-09T09:51:56.814Z,0.99
2023-11-09T09:54:29.915Z,0.93
2023-11-09T09:57:01.863Z,0.94
2023-11-09T09:59:35.243Z,1.06
2023-11-09T10:02:12.282Z,0.85
2023-11-09T10:04:43.954Z,0.89
2023-11-09T10:07:15.625Z,0.96
2023-11-09T10:09:47.149Z,0.94
2023-11-09T10:12:18.749Z,1.01
2023-11-09T10:14:50.355Z,0.88
2023-11-09T10:17:21.893Z,1.06
2023-11-09T10:19:53.549Z,0.98
2023-11-09T10:22:26.856Z,1.14
2023-11-09T10:24:58.605Z,0.99
2023-11-09T10:27:30.223Z,0.92
2023-11-09T10:30:01.786Z,1.14
2023-11-09T10:32:34.295Z,1.00
2023-11-09T10:35:06.498Z,0.96
2023-11-09T10:37:38.237Z,1.01
2023-11-09T10:40:11.488Z,1.41
2023-11-09T10:42:52.318Z,1.24
2023-11-09T10:45:27.573Z,1.38
2023-11-09T10:48:00.081Z,1.04
2023-11-09T10:50:31.736Z,1.25
2023-11-09T10:53:05.114Z,1.08
2023-11-09T10:55:38.825Z,1.19
2023-11-09T10:58:15.434Z,1.19
2023-11-09T11:00:50.364Z,1.20
2023-11-09T11:03:38.343Z,1.14
2023-11-09T11:06:11.535Z,1.34
2023-11-09T11:08:45.619Z,1.23
2023-11-09T11:11:20.666Z,1.60
2023-11-09T11:13:59.232Z,1.24
2023-11-09T11:17:01.709Z,1.25
2023-11-09T11:19:58.134Z,1.26
2023-11-09T11:22:57.539Z,1.72
2023-11-09T11:25:49.369Z,1.21
2023-11-09T11:28:20.987Z,1.26
2023-11-09T11:30:52.520Z,1.21
2023-11-09T11:33:24.064Z,1.23
2023-11-09T11:35:56.469Z,1.21
2023-11-09T11:38:32.542Z,1.18
2023-11-09T11:41:13.248Z,1.42
2023-11-09T11:43:48.329Z,1.32
2023-11-09T11:46:24.003Z,1.33
2023-11-09T11:48:55.566Z,1.26
2023-11-09T11:51:27.380Z,1.49
2023-11-09T11:54:07.877Z,1.45
2023-11-09T11:56:39.912Z,1.35
2023-11-09T11:59:11.483Z,1.61
2023-11-09T12:01:43.027Z,1.26
2023-11-09T12:04:14.733Z,1.38
2023-11-09T12:06:48.717Z,1.32
2023-11-09T12:09:20.540Z,1.35
2023-11-09T12:11:52.073Z,1.44
2023-11-09T12:14:23.634Z,1.54
2023-11-09T12:16:55.372Z,1.54
2023-11-09T12:19:26.947Z,1.51
2023-11-09T12:23:35.022Z,1.44
2023-11-09T12:26:06.718Z,1.47
2023-11-09T12:28:38.557Z,1.34
2023-11-09T12:31:10.272Z,1.53
2023-11-09T12:33:41.990Z,1.28
2023-11-09T12:36:13.463Z,1.46
2023-11-09T12:38:45.265Z,1.45
2023-11-09T12:41:24.343Z,1.47
2023-11-09T12:43:57.364Z,1.48
2023-11-09T12:46:28.854Z,1.45
2023-11-09T12:49:00.541Z,1.52
2023-11-09T12:51:32.129Z,1.65
2023-11-09T12:54:03.820Z,1.44
2023-11-09T12:56:36.605Z,1.50
2023-11-09T12:59:08.234Z,1.43
2023-11-09T13:01:40.264Z,1.77
2023-11-09T13:04:14.809Z,1.71
2023-11-09T13:06:47.431Z,1.43
2023-11-09T13:09:19.872Z,1.42
2023-11-09T13:11:51.505Z,1.44
2023-11-09T13:14:22.982Z,1.51
2023-11-09T13:16:58.410Z,1.61
2023-11-09T13:19:29.896Z,1.58
2023-11-09T13:22:01.442Z,1.58
2023-11-09T13:24:34.832Z,1.85
2023-11-09T13:27:06.941Z,1.48
2023-11-09T13:29:39.840Z,1.64
2023-11-09T13:32:14.554Z,1.48
2023-11-09T13:34:46.167Z,1.86
2023-11-09T13:37:17.748Z,1.66
2023-11-09T13:39:49.239Z,2.00
2023-11-09T13:42:20.719Z,1.68
2023-11-09T13:44:52.226Z,1.88
2023-11-09T13:47:23.966Z,1.64
2023-11-09T13:50:01.350Z,1.59
2023-11-09T13:52:32.977Z,1.79
2023-11-09T13:55:05.053Z,1.52
2023-11-09T13:57:36.597Z,1.87
2023-11-09T14:00:08.755Z,1.82
2023-11-09T14:05:36.704Z,1.80
2023-11-09T14:08:09.338Z,1.79
2023-11-09T14:10:40.827Z,1.83
2023-11-09T14:13:12.319Z,1.99
2023-11-09T14:15:43.960Z,1.74
2023-11-09T14:18:15.899Z,1.64
2023-11-09T14:20:47.493Z,1.73
2023-11-09T14:23:20.544Z,1.76
2023-11-09T14:25:52.225Z,1.89
2023-11-09T14:28:23.836Z,1.87
2023-11-09T14:30:55.376Z,1.85
2023-11-09T14:41:23.628Z,1.87
2023-11-09T14:43:55.163Z,1.58
2023-11-09T14:46:26.716Z,1.84
2023-11-09T14:48:58.363Z,2.00
2023-11-09T14:51:29.895Z,1.69
2023-11-09T14:54:01.457Z,1.69
2023-11-09T14:56:33.073Z,1.60
2023-11-09T14:59:06.346Z,1.45
2023-11-09T15:01:38.155Z,1.43
2023-11-09T15:04:09.780Z,1.58
2023-11-09T15:06:41.407Z,1.50
2023-11-09T15:09:13.325Z,1.75
2023-11-09T15:11:47.307Z,1.49
2023-11-09T15:14:18.858Z,1.58
2023-11-09T15:16:50.470Z,1.53
2023-11-09T15:19:22.063Z,1.42
2023-11-09T15:21:53.566Z,1.52
2023-11-09T15:24:25.082Z,1.55
2023-11-09T15:26:56.976Z,1.61
2023-11-09T15:29:28.528Z,1.62
2023-11-09T15:32:00.167Z,1.49
2023-11-09T15:34:31.869Z,1.51
2023-11-09T15:37:03.636Z,1.47
2023-11-09T15:39:52.213Z,1.64
2023-11-09T15:42:26.719Z,1.41
2023-11-09T15:44:58.402Z,1.43
2023-11-09T15:47:29.978Z,1.46
2023-11-09T15:50:01.517Z,1.39
2023-11-09T15:52:33.759Z,1.31
2023-11-09T15:55:07.570Z,1.16
2023-11-09T15:57:39.383Z,1.20
2023-11-09T16:00:11.295Z,1.54
2023-11-09T16:02:43.965Z,1.53
2023-11-09T16:05:17.549Z,1.65
2023-11-09T16:07:57.288Z,1.49
2023-11-09T16:10:29.079Z,1.22
2023-11-09T16:13:00.727Z,1.25
2023-11-09T16:15:32.272Z,1.07
2023-11-09T16:18:04.081Z,1.11
2023-11-09T16:20:35.740Z,1.01
2023-11-09T16:23:07.365Z,1.09
2023-11-09T16:25:42.210Z,0.99
2023-11-09T16:28:13.989Z,1.05
2023-11-09T16:30:45.651Z,0.99
2023-11-09T16:33:17.283Z,1.22
2023-11-09T16:35:48.963Z,1.14
2023-11-09T16:38:20.525Z,1.30
2023-11-09T16:40:52.082Z,1.12
2023-11-09T16:43:23.615Z,1.31
2023-11-09T16:45:55.144Z,1.21
2023-11-09T16:48:26.671Z,1.30
2023-11-09T16:50:58.132Z,1.27
2023-11-09T16:53:29.642Z,1.11
2023-11-09T16:56:01.168Z,1.30
2023-11-09T16:58:32.701Z,1.21
2023-11-09T17:01:07.531Z,1.12
2023-11-09T17:03:39.356Z,1.30
2023-11-09T17:06:11.199Z,1.19
2023-11-09T17:08:42.725Z,1.36
2023-11-09T17:11:14.464Z,1.62
2023-11-09T17:13:46.027Z,1.58
2023-11-09T17:16:17.587Z,1.57
2023-11-09T17:18:49.209Z,1.90
2023-11-09T17:21:21.060Z,1.71
2023-11-09T17:23:52.539Z,1.67
2023-11-09T17:26:24.016Z,1.63
2023-11-09T17:28:55.513Z,1.75
2023-11-09T17:31:27.026Z,1.74
2023-11-09T17:33:58.629Z,2.02
2023-11-09T17:36:30.239Z,1.64
2023-11-09T17:39:01.752Z,1.72
2023-11-09T17:41:33.249Z,1.79
2023-11-09T17:44:04.920Z,1.80
2023-11-09T17:46:39.283Z,1.86
2023-11-09T17:49:10.808Z,2.08
2023-11-09T17:51:42.303Z,1.91
2023-11-09T17:54:13.833Z,1.85
2023-11-09T17:56:45.713Z,2.00
2023-11-09T17:59:17.308Z,2.08
2023-11-09T18:01:48.940Z,2.02
2023-11-09T18:04:20.705Z,2.35
2023-11-09T18:06:52.208Z,1.96
2023-11-09T18:09:23.714Z,1.92
2023-11-09T18:11:57.228Z,1.84
2023-11-09T18:14:29.484Z,1.78
2023-11-09T18:17:01.166Z,1.84
2023-11-09T18:19:32.735Z,1.93
2023-11-09T18:22:04.526Z,1.74
2023-11-09T18:24:39.313Z,1.79
2023-11-09T18:27:13.817Z,1.71
2023-11-09T18:29:45.403Z,2.05
2023-11-09T18:32:17.080Z,1.71
2023-11-09T18:34:48.624Z,2.02
2023-11-09T18:37:20.317Z,1.73
2023-11-09T18:39:51.821Z,1.77
2023-11-09T18:42:23.364Z,2.04
2023-11-09T18:44:54.907Z,2.12
2023-11-09T18:47:26.628Z,2.10
2023-11-09T18:52:32.910Z,1.81
2023-11-09T18:55:04.804Z,1.73
2023-11-09T18:57:36.343Z,1.89
2023-11-09T19:00:08.411Z,1.66
2023-11-09T19:05:17.503Z,1.91
2023-11-09T19:07:49.241Z,1.94
2023-11-09T19:10:20.885Z,2.00
2023-11-09T19:12:52.581Z,2.08
2023-11-09T19:15:24.140Z,2.07
2023-11-09T19:17:55.738Z,1.89
2023-11-09T19:23:02.150Z,1.55
2023-11-09T19:25:33.737Z,2.00
2023-11-09T19:28:05.315Z,1.73
2023-11-09T19:30:37.019Z,1.57
2023-11-09T19:33:09.467Z,1.59
2023-11-09T19:35:41.198Z,1.45
2023-11-09T19:38:13.067Z,1.56
2023-11-09T19:40:46.033Z,1.53
2023-11-09T19:43:17.569Z,1.50
2023-11-09T19:45:49.210Z,1.56
2023-11-09T19:48:21.707Z,1.60
2023-11-09T19:50:53.821Z,1.65
2023-11-09T19:53:25.521Z,1.65
2023-11-09T19:55:57.087Z,1.74
2023-11-09T19:58:28.658Z,1.61
2023-11-09T20:01:00.203Z,1.52
2023-11-09T20:03:31.881Z,1.66
2023-11-09T20:06:03.550Z,1.92
2023-11-09T20:08:35.158Z,1.66
2023-11-09T20:11:07.533Z,1.61
2023-11-09T20:13:39.090Z,1.93
2023-11-09T20:16:10.670Z,1.77
2023-11-09T20:18:42.250Z,1.57
2023-11-09T20:21:13.802Z,1.79
2023-11-09T20:23:48.836Z,1.75
2023-11-09T20:26:20.823Z,1.77
2023-11-09T20:28:52.930Z,1.62
2023-11-09T20:31:24.703Z,1.66
2023-11-09T20:33:57.171Z,1.70
2023-11-09T20:36:28.908Z,1.72
2023-11-09T20:39:00.864Z,1.68
2023-11-09T20:41:32.467Z,1.78
2023-11-09T20:44:04.038Z,1.75
2023-11-09T20:46:35.858Z,2.07
2023-11-09T20:49:07.666Z,1.90
2023-11-09T20:51:39.314Z,1.97
2023-11-09T20:54:10.910Z,1.84
2023-11-09T20:56:42.634Z,1.73
2023-11-09T20:59:14.219Z,1.87
2023-11-09T21:01:46.468Z,1.76
2023-11-09T21:04:18.195Z,1.76
2023-11-09T21:06:50.217Z,1.81
2023-11-09T21:09:23.310Z,1.83
2023-11-09T21:11:56.730Z,1.78
2023-11-09T21:14:28.294Z,2.05
2023-11-09T21:16:59.828Z,1.89
2023-11-09T21:19:31.340Z,1.69
2023-11-09T21:22:03.006Z,1.74
2023-11-09T21:24:34.605Z,1.69
2023-11-09T21:27:06.215Z,1.57
2023-11-09T21:29:37.749Z,1.59
2023-11-09T21:32:09.281Z,1.64
2023-11-09T21:34:41.311Z,1.69
2023-11-09T21:37:13.110Z,1.62
2023-11-09T21:39:44.818Z,1.64
2023-11-09T21:42:16.575Z,2.15
2023-11-09T21:44:48.127Z,1.63
2023-11-09T21:47:19.690Z,1.76
2023-11-09T21:49:51.224Z,1.70
2023-11-09T21:52:22.755Z,1.64
2023-11-09T21:54:54.294Z,1.77
2023-11-09T21:57:28.315Z,1.73
2023-11-09T21:59:59.864Z,1.68
2023-11-09T22:02:31.473Z,2.03
2023-11-09T22:05:03.033Z,1.89
2023-11-09T22:07:37.624Z,2.11
2023-11-09T22:10:09.946Z,2.08
2023-11-09T22:12:42.133Z,2.44
2023-11-09T22:15:14.187Z,2.67
2023-11-09T22:17:52.248Z,2.36
2023-11-09T22:20:23.767Z,2.61
2023-11-09T22:22:55.329Z,2.66
2023-11-09T22:25:26.875Z,2.62
2023-11-09T22:27:58.436Z,2.53
2023-11-09T22:30:30.034Z,2.58
2023-11-09T22:33:01.660Z,2.69
2023-11-09T22:35:33.236Z,2.85
2023-11-09T22:38:04.767Z,2.51
2023-11-09T22:40:39.787Z,2.50
2023-11-09T22:43:11.277Z,2.80
2023-11-09T22:45:42.809Z,2.67
2023-11-09T22:48:14.768Z,3.05
2023-11-09T22:50:47.664Z,2.93
2023-11-09T22:53:19.229Z,2.36
2023-11-09T22:55:50.856Z,2.63
2023-11-09T22:58:22.382Z,2.64
2023-11-09T23:00:53.879Z,2.49
2023-11-09T23:03:25.497Z,2.46
2023-11-09T23:05:57.042Z,2.15
2023-11-09T23:08:28.599Z,2.18
2023-11-09T23:11:00.110Z,2.36
2023-11-09T23:13:31.654Z,2.08
2023-11-09T23:16:03.335Z,2.02
2023-11-09T23:18:34.900Z,2.01
2023-11-09T23:21:06.463Z,1.99
2023-11-09T23:23:37.980Z,1.91
2023-11-09T23:26:10.032Z,2.18
2023-11-09T23:28:42.977Z,1.83
2023-11-09T23:31:14.521Z,1.91
2023-11-09T23:33:46.135Z,1.86
2023-11-09T23:36:17.690Z,1.95
2023-11-09T23:38:49.253Z,2.14
2023-11-09T23:41:20.800Z,2.17
2023-11-09T23:43:52.338Z,2.18
2023-11-09T23:46:23.855Z,2.23
2023-11-09T23:48:55.364Z,2.28
2023-11-09T23:51:26.891Z,2.16
2023-11-09T23:53:58.568Z,2.32
2023-11-09T23:56:30.140Z,2.22
2023-11-09T23:59:01.698Z,1.92
